sensor_id;sensor_type;location;lat;lon;timestamp;P1;durP1;ratioP1;P2;durP2;ratioP2
68176;SDS011;56478;50.982;7.032;2023-04-23T00:02:00;9.35;;;8.25;;
68176;SDS011;56478;50.982;7.032;2023-04-23T00:04:27;10.35;;;8.35;;
68176;SDS011;56478;50.982;7.032;2023-04-23T00:06:52;10.65;;;8.55;;
68176;SDS011;56478;50.982;7.032;2023-04-23T00:09:19;9.68;;;8.60;;
68176;SDS011;56478;50.982;7.032;2023-04-23T00:11:47;10.68;;;8.95;;
68176;SDS011;56478;50.982;7.032;2023-04-23T00:14:13;9.05;;;8.10;;
68176;SDS011;56478;50.982;7.032;2023-04-23T00:16:38;9.90;;;8.40;;
68176;SDS011;56478;50.982;7.032;2023-04-23T00:19:05;11.82;;;8.90;;
68176;SDS011;56478;50.982;7.032;2023-04-23T00:21:30;11.15;;;9.13;;
68176;SDS011;56478;50.982;7.032;2023-04-23T00:23:56;9.77;;;8.65;;
68176;SDS011;56478;50.982;7.032;2023-04-23T00:26:22;9.93;;;8.85;;
68176;SDS011;56478;50.982;7.032;2023-04-23T00:28:47;10.23;;;8.48;;
68176;SDS011;56478;50.982;7.032;2023-04-23T00:31:13;9.98;;;8.27;;
68176;SDS011;56478;50.982;7.032;2023-04-23T00:33:38;13.10;;;8.82;;
68176;SDS011;56478;50.982;7.032;2023-04-23T00:36:04;11.00;;;9.30;;
68176;SDS011;56478;50.982;7.032;2023-04-23T00:38:31;11.05;;;8.85;;
68176;SDS011;56478;50.982;7.032;2023-04-23T00:40:56;10.25;;;9.15;;
68176;SDS011;56478;50.982;7.032;2023-04-23T00:43:22;14.57;;;8.85;;
68176;SDS011;56478;50.982;7.032;2023-04-23T00:45:48;9.70;;;8.60;;
68176;SDS011;56478;50.982;7.032;2023-04-23T00:48:13;11.35;;;8.82;;
68176;SDS011;56478;50.982;7.032;2023-04-23T00:50:40;10.98;;;8.95;;
68176;SDS011;56478;50.982;7.032;2023-04-23T00:53:06;11.23;;;8.95;;
68176;SDS011;56478;50.982;7.032;2023-04-23T00:55:32;9.57;;;8.68;;
68176;SDS011;56478;50.982;7.032;2023-04-23T00:57:58;11.73;;;8.85;;
68176;SDS011;56478;50.982;7.032;2023-04-23T01:00:24;11.75;;;9.30;;
68176;SDS011;56478;50.982;7.032;2023-04-23T01:02:50;10.52;;;8.85;;
68176;SDS011;56478;50.982;7.032;2023-04-23T01:05:17;10.98;;;8.40;;
68176;SDS011;56478;50.982;7.032;2023-04-23T01:07:44;10.90;;;8.93;;
68176;SDS011;56478;50.982;7.032;2023-04-23T01:10:11;11.15;;;8.93;;
68176;SDS011;56478;50.982;7.032;2023-04-23T01:12:36;11.25;;;8.93;;
68176;SDS011;56478;50.982;7.032;2023-04-23T01:15:02;12.27;;;9.07;;
68176;SDS011;56478;50.982;7.032;2023-04-23T01:17:29;12.38;;;8.90;;
68176;SDS011;56478;50.982;7.032;2023-04-23T01:19:56;10.60;;;9.02;;
68176;SDS011;56478;50.982;7.032;2023-04-23T01:22:22;12.57;;;9.23;;
68176;SDS011;56478;50.982;7.032;2023-04-23T01:24:47;10.35;;;8.32;;
68176;SDS011;56478;50.982;7.032;2023-04-23T01:27:13;10.30;;;8.68;;
68176;SDS011;56478;50.982;7.032;2023-04-23T01:29:40;12.10;;;9.27;;
68176;SDS011;56478;50.982;7.032;2023-04-23T01:32:06;10.73;;;8.88;;
68176;SDS011;56478;50.982;7.032;2023-04-23T01:34:32;10.88;;;8.80;;
68176;SDS011;56478;50.982;7.032;2023-04-23T01:36:59;11.27;;;8.57;;
68176;SDS011;56478;50.982;7.032;2023-04-23T01:39:25;10.85;;;9.20;;
68176;SDS011;56478;50.982;7.032;2023-04-23T01:41:50;13.60;;;9.07;;
68176;SDS011;56478;50.982;7.032;2023-04-23T01:44:17;12.90;;;9.40;;
68176;SDS011;56478;50.982;7.032;2023-04-23T01:46:43;16.13;;;9.85;;
68176;SDS011;56478;50.982;7.032;2023-04-23T01:49:08;13.73;;;9.43;;
68176;SDS011;56478;50.982;7.032;2023-04-23T01:51:35;13.02;;;9.93;;
68176;SDS011;56478;50.982;7.032;2023-04-23T01:54:00;13.25;;;10.15;;
68176;SDS011;56478;50.982;7.032;2023-04-23T01:56:26;13.32;;;10.00;;
68176;SDS011;56478;50.982;7.032;2023-04-23T01:58:52;12.80;;;9.63;;
68176;SDS011;56478;50.982;7.032;2023-04-23T02:01:18;13.40;;;10.15;;
68176;SDS011;56478;50.982;7.032;2023-04-23T02:03:43;13.70;;;9.95;;
68176;SDS011;56478;50.982;7.032;2023-04-23T02:06:10;12.35;;;9.77;;
68176;SDS011;56478;50.982;7.032;2023-04-23T02:08:36;15.60;;;9.70;;
68176;SDS011;56478;50.982;7.032;2023-04-23T02:11:02;12.02;;;9.63;;
68176;SDS011;56478;50.982;7.032;2023-04-23T02:13:27;12.98;;;10.13;;
68176;SDS011;56478;50.982;7.032;2023-04-23T02:15:53;15.25;;;10.13;;
68176;SDS011;56478;50.982;7.032;2023-04-23T02:18:18;13.07;;;10.07;;
68176;SDS011;56478;50.982;7.032;2023-04-23T02:20:44;12.70;;;9.52;;
68176;SDS011;56478;50.982;7.032;2023-04-23T02:23:09;13.75;;;10.25;;
68176;SDS011;56478;50.982;7.032;2023-04-23T02:25:36;16.58;;;10.30;;
68176;SDS011;56478;50.982;7.032;2023-04-23T02:28:05;14.43;;;10.55;;
68176;SDS011;56478;50.982;7.032;2023-04-23T02:30:32;13.30;;;9.95;;
68176;SDS011;56478;50.982;7.032;2023-04-23T02:33:00;13.82;;;10.07;;
68176;SDS011;56478;50.982;7.032;2023-04-23T02:35:26;15.35;;;10.90;;
68176;SDS011;56478;50.982;7.032;2023-04-23T02:37:52;14.07;;;10.40;;
68176;SDS011;56478;50.982;7.032;2023-04-23T02:40:18;15.05;;;10.13;;
68176;SDS011;56478;50.982;7.032;2023-04-23T02:42:44;13.25;;;10.10;;
68176;SDS011;56478;50.982;7.032;2023-04-23T02:45:10;15.63;;;9.48;;
68176;SDS011;56478;50.982;7.032;2023-04-23T02:47:38;18.10;;;10.80;;
68176;SDS011;56478;50.982;7.032;2023-04-23T02:50:04;13.63;;;10.73;;
68176;SDS011;56478;50.982;7.032;2023-04-23T02:52:31;14.27;;;10.82;;
68176;SDS011;56478;50.982;7.032;2023-04-23T02:54:57;15.13;;;10.70;;
68176;SDS011;56478;50.982;7.032;2023-04-23T02:57:23;13.82;;;11.05;;
68176;SDS011;56478;50.982;7.032;2023-04-23T02:59:49;15.63;;;11.38;;
68176;SDS011;56478;50.982;7.032;2023-04-23T03:02:14;14.07;;;10.70;;
68176;SDS011;56478;50.982;7.032;2023-04-23T03:04:40;16.52;;;11.48;;
68176;SDS011;56478;50.982;7.032;2023-04-23T03:07:06;17.00;;;11.48;;
68176;SDS011;56478;50.982;7.032;2023-04-23T03:09:32;14.95;;;10.98;;
68176;SDS011;56478;50.982;7.032;2023-04-23T03:11:57;16.00;;;11.07;;
68176;SDS011;56478;50.982;7.032;2023-04-23T03:14:23;15.25;;;10.93;;
68176;SDS011;56478;50.982;7.032;2023-04-23T03:16:48;18.90;;;11.48;;
68176;SDS011;56478;50.982;7.032;2023-04-23T03:19:14;16.55;;;11.23;;
68176;SDS011;56478;50.982;7.032;2023-04-23T03:21:40;16.40;;;10.90;;
68176;SDS011;56478;50.982;7.032;2023-04-23T03:24:06;14.63;;;11.60;;
68176;SDS011;56478;50.982;7.032;2023-04-23T03:26:31;15.75;;;11.90;;
68176;SDS011;56478;50.982;7.032;2023-04-23T03:28:58;16.25;;;11.70;;
68176;SDS011;56478;50.982;7.032;2023-04-23T03:31:24;15.70;;;11.32;;
68176;SDS011;56478;50.982;7.032;2023-04-23T03:33:50;14.95;;;11.20;;
68176;SDS011;56478;50.982;7.032;2023-04-23T03:36:16;18.33;;;12.18;;
68176;SDS011;56478;50.982;7.032;2023-04-23T03:38:42;16.40;;;12.18;;
68176;SDS011;56478;50.982;7.032;2023-04-23T03:41:07;15.60;;;12.00;;
68176;SDS011;56478;50.982;7.032;2023-04-23T03:43:33;19.10;;;12.93;;
68176;SDS011;56478;50.982;7.032;2023-04-23T03:45:58;17.73;;;12.18;;
68176;SDS011;56478;50.982;7.032;2023-04-23T03:48:29;16.65;;;11.77;;
68176;SDS011;56478;50.982;7.032;2023-04-23T03:51:00;17.30;;;12.05;;
68176;SDS011;56478;50.982;7.032;2023-04-23T03:53:26;16.73;;;11.95;;
68176;SDS011;56478;50.982;7.032;2023-04-23T03:55:52;18.10;;;12.65;;
68176;SDS011;56478;50.982;7.032;2023-04-23T03:58:17;19.00;;;11.88;;
68176;SDS011;56478;50.982;7.032;2023-04-23T04:00:43;18.42;;;12.55;;
68176;SDS011;56478;50.982;7.032;2023-04-23T04:03:09;19.15;;;12.98;;
68176;SDS011;56478;50.982;7.032;2023-04-23T04:05:35;16.83;;;12.13;;
68176;SDS011;56478;50.982;7.032;2023-04-23T04:08:00;17.10;;;12.95;;
68176;SDS011;56478;50.982;7.032;2023-04-23T04:10:26;19.20;;;13.38;;
68176;SDS011;56478;50.982;7.032;2023-04-23T04:12:52;21.33;;;14.25;;
68176;SDS011;56478;50.982;7.032;2023-04-23T04:15:19;21.30;;;13.75;;
68176;SDS011;56478;50.982;7.032;2023-04-23T04:17:45;19.60;;;13.32;;
68176;SDS011;56478;50.982;7.032;2023-04-23T04:20:14;19.63;;;13.63;;
68176;SDS011;56478;50.982;7.032;2023-04-23T04:22:39;20.10;;;13.10;;
68176;SDS011;56478;50.982;7.032;2023-04-23T04:25:05;19.75;;;12.98;;
68176;SDS011;56478;50.982;7.032;2023-04-23T04:27:31;21.98;;;13.07;;
68176;SDS011;56478;50.982;7.032;2023-04-23T04:29:58;17.77;;;13.18;;
68176;SDS011;56478;50.982;7.032;2023-04-23T04:32:25;18.92;;;12.25;;
68176;SDS011;56478;50.982;7.032;2023-04-23T04:34:52;19.60;;;13.25;;
68176;SDS011;56478;50.982;7.032;2023-04-23T04:37:19;19.15;;;13.52;;
68176;SDS011;56478;50.982;7.032;2023-04-23T04:39:45;21.92;;;13.63;;
68176;SDS011;56478;50.982;7.032;2023-04-23T04:42:11;20.08;;;13.75;;
68176;SDS011;56478;50.982;7.032;2023-04-23T04:44:37;21.33;;;13.98;;
68176;SDS011;56478;50.982;7.032;2023-04-23T04:47:02;19.20;;;13.00;;
68176;SDS011;56478;50.982;7.032;2023-04-23T04:49:28;20.45;;;12.85;;
68176;SDS011;56478;50.982;7.032;2023-04-23T04:51:54;16.63;;;12.27;;
68176;SDS011;56478;50.982;7.032;2023-04-23T04:54:20;18.90;;;13.02;;
68176;SDS011;56478;50.982;7.032;2023-04-23T04:56:45;17.25;;;12.80;;
68176;SDS011;56478;50.982;7.032;2023-04-23T04:59:11;17.33;;;12.68;;
68176;SDS011;56478;50.982;7.032;2023-04-23T05:01:37;20.17;;;13.38;;
68176;SDS011;56478;50.982;7.032;2023-04-23T05:04:02;17.52;;;12.65;;
68176;SDS011;56478;50.982;7.032;2023-04-23T05:06:28;16.83;;;12.45;;
68176;SDS011;56478;50.982;7.032;2023-04-23T05:08:53;20.42;;;12.27;;
68176;SDS011;56478;50.982;7.032;2023-04-23T05:11:19;15.40;;;12.25;;
68176;SDS011;56478;50.982;7.032;2023-04-23T05:13:45;16.65;;;11.32;;
68176;SDS011;56478;50.982;7.032;2023-04-23T05:16:11;15.55;;;11.65;;
68176;SDS011;56478;50.982;7.032;2023-04-23T05:18:37;16.63;;;11.40;;
68176;SDS011;56478;50.982;7.032;2023-04-23T05:21:03;16.85;;;11.23;;
68176;SDS011;56478;50.982;7.032;2023-04-23T05:23:30;16.85;;;11.48;;
68176;SDS011;56478;50.982;7.032;2023-04-23T05:25:56;16.00;;;11.23;;
68176;SDS011;56478;50.982;7.032;2023-04-23T05:28:27;15.10;;;11.35;;
68176;SDS011;56478;50.982;7.032;2023-04-23T05:30:54;13.60;;;10.30;;
68176;SDS011;56478;50.982;7.032;2023-04-23T05:33:20;13.27;;;10.68;;
68176;SDS011;56478;50.982;7.032;2023-04-23T05:35:48;16.15;;;10.70;;
68176;SDS011;56478;50.982;7.032;2023-04-23T05:38:14;14.85;;;10.32;;
68176;SDS011;56478;50.982;7.032;2023-04-23T05:40:39;12.73;;;10.55;;
68176;SDS011;56478;50.982;7.032;2023-04-23T05:43:05;11.80;;;9.85;;
68176;SDS011;56478;50.982;7.032;2023-04-23T05:45:31;13.35;;;10.27;;
68176;SDS011;56478;50.982;7.032;2023-04-23T05:47:56;12.93;;;10.40;;
68176;SDS011;56478;50.982;7.032;2023-04-23T05:50:22;13.10;;;10.35;;
68176;SDS011;56478;50.982;7.032;2023-04-23T05:52:48;13.93;;;10.00;;
68176;SDS011;56478;50.982;7.032;2023-04-23T05:55:13;12.63;;;9.88;;
68176;SDS011;56478;50.982;7.032;2023-04-23T05:57:42;14.10;;;9.45;;
68176;SDS011;56478;50.982;7.032;2023-04-23T06:00:08;11.27;;;9.15;;
68176;SDS011;56478;50.982;7.032;2023-04-23T06:02:34;10.40;;;9.23;;
68176;SDS011;56478;50.982;7.032;2023-04-23T06:04:59;10.57;;;8.88;;
68176;SDS011;56478;50.982;7.032;2023-04-23T06:07:25;10.20;;;8.90;;
68176;SDS011;56478;50.982;7.032;2023-04-23T06:09:51;11.07;;;8.05;;
68176;SDS011;56478;50.982;7.032;2023-04-23T06:12:16;12.10;;;8.45;;
68176;SDS011;56478;50.982;7.032;2023-04-23T06:14:42;12.07;;;8.35;;
68176;SDS011;56478;50.982;7.032;2023-04-23T06:17:08;9.45;;;8.45;;
68176;SDS011;56478;50.982;7.032;2023-04-23T06:19:33;10.05;;;8.45;;
68176;SDS011;56478;50.982;7.032;2023-04-23T06:21:59;10.43;;;8.25;;
68176;SDS011;56478;50.982;7.032;2023-04-23T06:24:24;11.63;;;8.55;;
68176;SDS011;56478;50.982;7.032;2023-04-23T06:26:50;9.77;;;8.02;;
68176;SDS011;56478;50.982;7.032;2023-04-23T06:29:15;9.98;;;7.82;;
68176;SDS011;56478;50.982;7.032;2023-04-23T06:31:41;9.73;;;7.80;;
68176;SDS011;56478;50.982;7.032;2023-04-23T06:34:06;8.40;;;7.60;;
68176;SDS011;56478;50.982;7.032;2023-04-23T06:36:32;9.02;;;7.15;;
68176;SDS011;56478;50.982;7.032;2023-04-23T06:38:58;9.15;;;7.63;;
68176;SDS011;56478;50.982;7.032;2023-04-23T06:41:23;8.32;;;7.53;;
68176;SDS011;56478;50.982;7.032;2023-04-23T06:43:49;7.85;;;7.03;;
68176;SDS011;56478;50.982;7.032;2023-04-23T06:46:15;7.72;;;6.90;;
68176;SDS011;56478;50.982;7.032;2023-04-23T06:48:40;9.35;;;7.05;;
68176;SDS011;56478;50.982;7.032;2023-04-23T06:51:06;9.27;;;7.10;;
68176;SDS011;56478;50.982;7.032;2023-04-23T06:53:32;7.78;;;6.75;;
68176;SDS011;56478;50.982;7.032;2023-04-23T06:55:58;9.35;;;7.13;;
68176;SDS011;56478;50.982;7.032;2023-04-23T06:58:23;7.75;;;6.63;;
68176;SDS011;56478;50.982;7.032;2023-04-23T07:00:55;8.93;;;6.75;;
68176;SDS011;56478;50.982;7.032;2023-04-23T07:03:24;7.28;;;6.57;;
68176;SDS011;56478;50.982;7.032;2023-04-23T07:05:50;7.57;;;6.60;;
68176;SDS011;56478;50.982;7.032;2023-04-23T07:08:16;7.95;;;6.13;;
68176;SDS011;56478;50.982;7.032;2023-04-23T07:10:41;6.68;;;5.80;;
68176;SDS011;56478;50.982;7.032;2023-04-23T07:13:07;6.30;;;5.70;;
68176;SDS011;56478;50.982;7.032;2023-04-23T07:15:33;5.90;;;5.30;;
68176;SDS011;56478;50.982;7.032;2023-04-23T07:17:58;5.32;;;4.93;;
68176;SDS011;56478;50.982;7.032;2023-04-23T07:20:24;5.90;;;5.30;;
68176;SDS011;56478;50.982;7.032;2023-04-23T07:22:50;5.90;;;5.10;;
68176;SDS011;56478;50.982;7.032;2023-04-23T07:25:16;5.63;;;5.13;;
68176;SDS011;56478;50.982;7.032;2023-04-23T07:27:42;5.70;;;5.10;;
68176;SDS011;56478;50.982;7.032;2023-04-23T07:30:08;6.55;;;4.95;;
68176;SDS011;56478;50.982;7.032;2023-04-23T07:32:34;6.28;;;4.80;;
68176;SDS011;56478;50.982;7.032;2023-04-23T07:35:00;5.00;;;4.60;;
68176;SDS011;56478;50.982;7.032;2023-04-23T07:37:25;4.50;;;4.20;;
68176;SDS011;56478;50.982;7.032;2023-04-23T07:39:51;4.93;;;4.45;;
68176;SDS011;56478;50.982;7.032;2023-04-23T07:42:17;4.10;;;3.80;;
68176;SDS011;56478;50.982;7.032;2023-04-23T07:44:43;6.40;;;3.80;;
68176;SDS011;56478;50.982;7.032;2023-04-23T07:47:09;3.85;;;3.55;;
68176;SDS011;56478;50.982;7.032;2023-04-23T07:49:35;4.95;;;3.58;;
68176;SDS011;56478;50.982;7.032;2023-04-23T07:52:05;4.70;;;3.47;;
68176;SDS011;56478;50.982;7.032;2023-04-23T07:54:37;3.60;;;3.28;;
68176;SDS011;56478;50.982;7.032;2023-04-23T07:57:03;3.47;;;3.17;;
68176;SDS011;56478;50.982;7.032;2023-04-23T07:59:28;3.42;;;3.15;;
68176;SDS011;56478;50.982;7.032;2023-04-23T08:01:54;4.97;;;3.10;;
68176;SDS011;56478;50.982;7.032;2023-04-23T08:04:19;3.75;;;3.45;;
68176;SDS011;56478;50.982;7.032;2023-04-23T08:06:48;3.92;;;3.20;;
68176;SDS011;56478;50.982;7.032;2023-04-23T08:09:17;3.35;;;2.75;;
68176;SDS011;56478;50.982;7.032;2023-04-23T08:11:46;3.40;;;3.10;;
68176;SDS011;56478;50.982;7.032;2023-04-23T08:14:12;3.00;;;2.80;;
68176;SDS011;56478;50.982;7.032;2023-04-23T08:16:38;3.40;;;2.97;;
68176;SDS011;56478;50.982;7.032;2023-04-23T08:19:04;4.20;;;3.10;;
68176;SDS011;56478;50.982;7.032;2023-04-23T08:21:30;2.97;;;2.78;;
68176;SDS011;56478;50.982;7.032;2023-04-23T08:23:57;5.82;;;3.22;;
68176;SDS011;56478;50.982;7.032;2023-04-23T08:26:23;3.47;;;2.72;;
68176;SDS011;56478;50.982;7.032;2023-04-23T08:28:48;3.05;;;2.72;;
68176;SDS011;56478;50.982;7.032;2023-04-23T08:31:14;2.90;;;2.70;;
68176;SDS011;56478;50.982;7.032;2023-04-23T08:33:41;3.00;;;2.80;;
68176;SDS011;56478;50.982;7.032;2023-04-23T08:36:07;4.18;;;2.88;;
68176;SDS011;56478;50.982;7.032;2023-04-23T08:38:33;4.05;;;2.50;;
68176;SDS011;56478;50.982;7.032;2023-04-23T08:40:59;2.80;;;2.60;;
68176;SDS011;56478;50.982;7.032;2023-04-23T08:43:31;4.32;;;2.80;;
68176;SDS011;56478;50.982;7.032;2023-04-23T08:46:02;2.97;;;2.63;;
68176;SDS011;56478;50.982;7.032;2023-04-23T08:48:28;3.22;;;2.60;;
68176;SDS011;56478;50.982;7.032;2023-04-23T08:50:55;4.93;;;2.60;;
68176;SDS011;56478;50.982;7.032;2023-04-23T08:53:22;3.30;;;2.70;;
68176;SDS011;56478;50.982;7.032;2023-04-23T08:55:52;3.90;;;2.50;;
68176;SDS011;56478;50.982;7.032;2023-04-23T08:58:20;3.08;;;2.78;;
68176;SDS011;56478;50.982;7.032;2023-04-23T09:00:47;2.35;;;2.20;;
68176;SDS011;56478;50.982;7.032;2023-04-23T09:03:15;2.83;;;2.35;;
68176;SDS011;56478;50.982;7.032;2023-04-23T09:05:42;3.20;;;2.13;;
68176;SDS011;56478;50.982;7.032;2023-04-23T09:08:09;4.18;;;2.55;;
68176;SDS011;56478;50.982;7.032;2023-04-23T09:10:36;3.22;;;2.60;;
68176;SDS011;56478;50.982;7.032;2023-04-23T09:13:04;2.50;;;2.30;;
68176;SDS011;56478;50.982;7.032;2023-04-23T09:15:30;3.53;;;2.50;;
68176;SDS011;56478;50.982;7.032;2023-04-23T09:17:56;2.25;;;2.15;;
68176;SDS011;56478;50.982;7.032;2023-04-23T09:20:22;3.33;;;2.13;;
68176;SDS011;56478;50.982;7.032;2023-04-23T09:22:49;3.35;;;2.70;;
68176;SDS011;56478;50.982;7.032;2023-04-23T09:25:20;2.45;;;2.13;;
68176;SDS011;56478;50.982;7.032;2023-04-23T09:30:14;2.20;;;2.03;;
68176;SDS011;56478;50.982;7.032;2023-04-23T09:32:41;4.18;;;2.53;;
68176;SDS011;56478;50.982;7.032;2023-04-23T09:35:08;3.33;;;2.35;;
68176;SDS011;56478;50.982;7.032;2023-04-23T09:37:36;3.67;;;2.40;;
68176;SDS011;56478;50.982;7.032;2023-04-23T09:40:06;2.78;;;2.25;;
68176;SDS011;56478;50.982;7.032;2023-04-23T09:42:35;6.78;;;2.20;;
68176;SDS011;56478;50.982;7.032;2023-04-23T09:45:02;2.60;;;2.15;;
68176;SDS011;56478;50.982;7.032;2023-04-23T09:47:38;4.45;;;2.20;;
68176;SDS011;56478;50.982;7.032;2023-04-23T09:50:05;2.42;;;2.10;;
68176;SDS011;56478;50.982;7.032;2023-04-23T09:52:37;4.40;;;2.22;;
68176;SDS011;56478;50.982;7.032;2023-04-23T09:55:03;2.28;;;2.00;;
68176;SDS011;56478;50.982;7.032;2023-04-23T09:57:34;1.83;;;1.70;;
68176;SDS011;56478;50.982;7.032;2023-04-23T10:00:11;4.22;;;1.77;;
68176;SDS011;56478;50.982;7.032;2023-04-23T10:02:37;2.50;;;1.90;;
68176;SDS011;56478;50.982;7.032;2023-04-23T10:05:13;2.97;;;1.85;;
68176;SDS011;56478;50.982;7.032;2023-04-23T10:07:42;3.97;;;1.83;;
68176;SDS011;56478;50.982;7.032;2023-04-23T10:10:09;3.38;;;1.90;;
68176;SDS011;56478;50.982;7.032;2023-04-23T10:12:35;4.38;;;1.70;;
68176;SDS011;56478;50.982;7.032;2023-04-23T10:15:04;1.88;;;1.77;;
68176;SDS011;56478;50.982;7.032;2023-04-23T10:17:35;2.05;;;1.80;;
68176;SDS011;56478;50.982;7.032;2023-04-23T10:20:02;3.22;;;1.67;;
68176;SDS011;56478;50.982;7.032;2023-04-23T10:22:29;3.67;;;1.80;;
68176;SDS011;56478;50.982;7.032;2023-04-23T10:24:57;1.60;;;1.50;;
68176;SDS011;56478;50.982;7.032;2023-04-23T10:27:35;2.30;;;1.65;;
68176;SDS011;56478;50.982;7.032;2023-04-23T10:30:06;1.65;;;1.55;;
68176;SDS011;56478;50.982;7.032;2023-04-23T10:32:37;3.30;;;1.67;;
68176;SDS011;56478;50.982;7.032;2023-04-23T10:35:04;3.58;;;1.60;;
68176;SDS011;56478;50.982;7.032;2023-04-23T10:37:30;1.70;;;1.52;;
68176;SDS011;56478;50.982;7.032;2023-04-23T10:39:58;3.90;;;1.60;;
68176;SDS011;56478;50.982;7.032;2023-04-23T10:42:33;2.13;;;1.60;;
68176;SDS011;56478;50.982;7.032;2023-04-23T10:44:59;1.75;;;1.58;;
68176;SDS011;56478;50.982;7.032;2023-04-23T10:47:25;3.35;;;1.60;;
68176;SDS011;56478;50.982;7.032;2023-04-23T10:49:50;2.78;;;1.50;;
68176;SDS011;56478;50.982;7.032;2023-04-23T10:52:17;6.20;;;1.50;;
68176;SDS011;56478;50.982;7.032;2023-04-23T10:54:46;3.63;;;1.67;;
68176;SDS011;56478;50.982;7.032;2023-04-23T10:57:21;1.95;;;1.50;;
68176;SDS011;56478;50.982;7.032;2023-04-23T10:59:53;1.80;;;1.70;;
68176;SDS011;56478;50.982;7.032;2023-04-23T11:02:21;3.22;;;1.42;;
68176;SDS011;56478;50.982;7.032;2023-04-23T11:04:54;1.90;;;1.60;;
68176;SDS011;56478;50.982;7.032;2023-04-23T11:07:24;2.95;;;2.10;;
68176;SDS011;56478;50.982;7.032;2023-04-23T11:09:57;3.03;;;1.60;;
68176;SDS011;56478;50.982;7.032;2023-04-23T11:14:51;2.22;;;1.48;;
68176;SDS011;56478;50.982;7.032;2023-04-23T11:17:21;1.90;;;1.30;;
68176;SDS011;56478;50.982;7.032;2023-04-23T11:22:37;2.35;;;1.40;;
68176;SDS011;56478;50.982;7.032;2023-04-23T11:25:07;4.20;;;1.60;;
68176;SDS011;56478;50.982;7.032;2023-04-23T11:27:42;3.35;;;1.38;;
68176;SDS011;56478;50.982;7.032;2023-04-23T11:30:15;1.33;;;1.27;;
68176;SDS011;56478;50.982;7.032;2023-04-23T11:32:46;1.60;;;1.48;;
68176;SDS011;56478;50.982;7.032;2023-04-23T11:35:17;1.77;;;1.30;;
68176;SDS011;56478;50.982;7.032;2023-04-23T11:37:45;1.98;;;1.30;;
68176;SDS011;56478;50.982;7.032;2023-04-23T11:40:13;1.97;;;1.43;;
68176;SDS011;56478;50.982;7.032;2023-04-23T11:42:46;4.32;;;1.52;;
68176;SDS011;56478;50.982;7.032;2023-04-23T11:45:16;1.80;;;1.40;;
68176;SDS011;56478;50.982;7.032;2023-04-23T11:47:47;1.70;;;1.60;;
68176;SDS011;56478;50.982;7.032;2023-04-23T11:50:17;1.85;;;1.40;;
68176;SDS011;56478;50.982;7.032;2023-04-23T11:52:46;3.55;;;1.83;;
68176;SDS011;56478;50.982;7.032;2023-04-23T11:55:15;1.65;;;1.50;;
68176;SDS011;56478;50.982;7.032;2023-04-23T11:57:45;2.50;;;1.65;;
68176;SDS011;56478;50.982;7.032;2023-04-23T12:03:01;2.60;;;1.52;;
68176;SDS011;56478;50.982;7.032;2023-04-23T12:05:27;2.17;;;1.60;;
68176;SDS011;56478;50.982;7.032;2023-04-23T12:10:33;1.85;;;1.60;;
68176;SDS011;56478;50.982;7.032;2023-04-23T12:13:30;2.25;;;1.48;;
68176;SDS011;56478;50.982;7.032;2023-04-23T12:16:00;3.45;;;1.50;;
68176;SDS011;56478;50.982;7.032;2023-04-23T12:18:31;3.83;;;1.60;;
68176;SDS011;56478;50.982;7.032;2023-04-23T12:21:05;3.78;;;1.48;;
68176;SDS011;56478;50.982;7.032;2023-04-23T12:23:31;3.95;;;1.80;;
68176;SDS011;56478;50.982;7.032;2023-04-23T12:26:00;3.17;;;1.50;;
68176;SDS011;56478;50.982;7.032;2023-04-23T12:28:30;3.50;;;1.52;;
68176;SDS011;56478;50.982;7.032;2023-04-23T12:31:00;5.55;;;1.30;;
68176;SDS011;56478;50.982;7.032;2023-04-23T12:33:29;2.92;;;1.40;;
68176;SDS011;56478;50.982;7.032;2023-04-23T12:35:55;2.72;;;1.60;;
68176;SDS011;56478;50.982;7.032;2023-04-23T12:38:22;4.03;;;1.60;;
68176;SDS011;56478;50.982;7.032;2023-04-23T12:40:49;2.03;;;1.35;;
68176;SDS011;56478;50.982;7.032;2023-04-23T12:43:19;2.72;;;1.30;;
68176;SDS011;56478;50.982;7.032;2023-04-23T12:45:48;1.58;;;1.35;;
68176;SDS011;56478;50.982;7.032;2023-04-23T12:48:14;2.65;;;1.45;;
68176;SDS011;56478;50.982;7.032;2023-04-23T12:50:40;1.83;;;1.50;;
68176;SDS011;56478;50.982;7.032;2023-04-23T12:53:05;1.73;;;1.30;;
68176;SDS011;56478;50.982;7.032;2023-04-23T12:55:32;1.55;;;1.40;;
68176;SDS011;56478;50.982;7.032;2023-04-23T12:58:02;3.40;;;1.40;;
68176;SDS011;56478;50.982;7.032;2023-04-23T13:00:29;3.47;;;1.30;;
68176;SDS011;56478;50.982;7.032;2023-04-23T13:02:55;1.27;;;1.17;;
68176;SDS011;56478;50.982;7.032;2023-04-23T13:05:21;2.03;;;1.40;;
68176;SDS011;56478;50.982;7.032;2023-04-23T13:07:49;1.20;;;1.20;;
68176;SDS011;56478;50.982;7.032;2023-04-23T13:10:18;2.67;;;1.27;;
68176;SDS011;56478;50.982;7.032;2023-04-23T13:12:43;2.50;;;1.40;;
68176;SDS011;56478;50.982;7.032;2023-04-23T13:15:09;2.30;;;1.33;;
68176;SDS011;56478;50.982;7.032;2023-04-23T13:17:37;4.00;;;1.60;;
68176;SDS011;56478;50.982;7.032;2023-04-23T13:20:02;1.40;;;1.30;;
68176;SDS011;56478;50.982;7.032;2023-04-23T13:22:29;3.25;;;1.42;;
68176;SDS011;56478;50.982;7.032;2023-04-23T13:24:55;3.47;;;1.50;;
68176;SDS011;56478;50.982;7.032;2023-04-23T13:27:21;2.30;;;1.42;;
68176;SDS011;56478;50.982;7.032;2023-04-23T13:29:48;3.35;;;1.40;;
68176;SDS011;56478;50.982;7.032;2023-04-23T13:32:14;4.47;;;1.55;;
68176;SDS011;56478;50.982;7.032;2023-04-23T13:34:40;1.13;;;1.13;;
68176;SDS011;56478;50.982;7.032;2023-04-23T13:37:06;1.10;;;1.10;;
68176;SDS011;56478;50.982;7.032;2023-04-23T13:39:33;1.75;;;1.40;;
68176;SDS011;56478;50.982;7.032;2023-04-23T13:42:00;3.13;;;1.23;;
68176;SDS011;56478;50.982;7.032;2023-04-23T13:44:26;2.28;;;1.45;;
68176;SDS011;56478;50.982;7.032;2023-04-23T13:46:51;1.48;;;1.30;;
68176;SDS011;56478;50.982;7.032;2023-04-23T13:49:17;2.35;;;1.30;;
68176;SDS011;56478;50.982;7.032;2023-04-23T13:51:50;3.05;;;1.50;;
68176;SDS011;56478;50.982;7.032;2023-04-23T13:54:18;2.20;;;1.30;;
68176;SDS011;56478;50.982;7.032;2023-04-23T13:56:44;1.95;;;1.40;;
68176;SDS011;56478;50.982;7.032;2023-04-23T13:59:11;3.30;;;1.45;;
68176;SDS011;56478;50.982;7.032;2023-04-23T14:01:37;2.08;;;1.33;;
68176;SDS011;56478;50.982;7.032;2023-04-23T14:04:03;1.40;;;1.15;;
68176;SDS011;56478;50.982;7.032;2023-04-23T14:06:47;1.88;;;1.50;;
68176;SDS011;56478;50.982;7.032;2023-04-23T14:11:43;1.85;;;1.30;;
68176;SDS011;56478;50.982;7.032;2023-04-23T14:14:08;2.35;;;1.30;;
68176;SDS011;56478;50.982;7.032;2023-04-23T14:16:34;2.40;;;1.42;;
68176;SDS011;56478;50.982;7.032;2023-04-23T14:19:05;2.45;;;1.60;;
68176;SDS011;56478;50.982;7.032;2023-04-23T14:21:31;2.90;;;1.80;;
68176;SDS011;56478;50.982;7.032;2023-04-23T14:24:02;4.25;;;1.55;;
68176;SDS011;56478;50.982;7.032;2023-04-23T14:26:40;1.67;;;1.40;;
68176;SDS011;56478;50.982;7.032;2023-04-23T14:29:09;1.63;;;1.30;;
68176;SDS011;56478;50.982;7.032;2023-04-23T14:32:27;2.17;;;1.20;;
68176;SDS011;56478;50.982;7.032;2023-04-23T14:35:28;3.15;;;1.40;;
68176;SDS011;56478;50.982;7.032;2023-04-23T14:38:17;1.45;;;1.30;;
68176;SDS011;56478;50.982;7.032;2023-04-23T14:45:08;3.92;;;1.70;;
68176;SDS011;56478;50.982;7.032;2023-04-23T14:47:44;1.95;;;1.50;;
68176;SDS011;56478;50.982;7.032;2023-04-23T14:50:55;1.70;;;1.60;;
68176;SDS011;56478;50.982;7.032;2023-04-23T14:54:31;1.90;;;1.70;;
68176;SDS011;56478;50.982;7.032;2023-04-23T14:57:29;3.80;;;2.25;;
68176;SDS011;56478;50.982;7.032;2023-04-23T15:00:58;2.67;;;2.25;;
68176;SDS011;56478;50.982;7.032;2023-04-23T15:07:23;3.63;;;2.45;;